sensor_id;sensor_type;location;lat;lon;timestamp;temperature;humidity
11569;DHT22;5840;46.894;15.542;2022-08-05T00:02:04;22.20;98.70
11569;DHT22;5840;46.894;15.542;2022-08-05T00:04:31;22.20;99.10
11569;DHT22;5840;46.894;15.542;2022-08-05T00:06:58;22.10;99.50
11569;DHT22;5840;46.894;15.542;2022-08-05T00:09:25;22.10;99.80
11569;DHT22;5840;46.894;15.542;2022-08-05T00:11:53;22.10;99.90
11569;DHT22;5840;46.894;15.542;2022-08-05T00:14:20;22.00;99.90
11569;DHT22;5840;46.894;15.542;2022-08-05T00:16:47;22.00;99.70
11569;DHT22;5840;46.894;15.542;2022-08-05T00:19:14;21.90;99.70
11569;DHT22;5840;46.894;15.542;2022-08-05T00:21:41;21.80;99.90
11569;DHT22;5840;46.894;15.542;2022-08-05T00:24:08;21.80;99.90
11569;DHT22;5840;46.894;15.542;2022-08-05T00:26:35;21.80;99.90
11569;DHT22;5840;46.894;15.542;2022-08-05T00:29:03;21.70;99.90
11569;DHT22;5840;46.894;15.542;2022-08-05T00:31:30;21.70;99.90
11569;DHT22;5840;46.894;15.542;2022-08-05T00:33:57;21.70;99.90
11569;DHT22;5840;46.894;15.542;2022-08-05T00:36:24;21.60;99.90
11569;DHT22;5840;46.894;15.542;2022-08-05T00:38:51;21.60;99.90
11569;DHT22;5840;46.894;15.542;2022-08-05T00:41:27;21.50;99.90
11569;DHT22;5840;46.894;15.542;2022-08-05T00:43:54;21.50;99.90
11569;DHT22;5840;46.894;15.542;2022-08-05T00:46:23;21.40;99.90
11569;DHT22;5840;46.894;15.542;2022-08-05T00:48:50;21.40;99.90
11569;DHT22;5840;46.894;15.542;2022-08-05T00:51:17;21.40;99.90
11569;DHT22;5840;46.894;15.542;2022-08-05T00:53:44;21.40;99.90
11569;DHT22;5840;46.894;15.542;2022-08-05T00:56:11;21.40;99.90
11569;DHT22;5840;46.894;15.542;2022-08-05T00:58:38;21.40;99.90
11569;DHT22;5840;46.894;15.542;2022-08-05T01:01:06;21.30;99.90
11569;DHT22;5840;46.894;15.542;2022-08-05T01:03:34;21.30;99.90
11569;DHT22;5840;46.894;15.542;2022-08-05T01:06:01;21.30;99.90
11569;DHT22;5840;46.894;15.542;2022-08-05T01:08:28;21.20;99.90
11569;DHT22;5840;46.894;15.542;2022-08-05T01:10:57;21.20;99.90
11569;DHT22;5840;46.894;15.542;2022-08-05T01:13:32;21.10;99.90
11569;DHT22;5840;46.894;15.542;2022-08-05T01:16:04;21.10;99.90
11569;DHT22;5840;46.894;15.542;2022-08-05T01:18:36;21.00;99.90
11569;DHT22;5840;46.894;15.542;2022-08-05T01:21:11;21.00;99.90
11569;DHT22;5840;46.894;15.542;2022-08-05T01:23:56;21.00;99.90
11569;DHT22;5840;46.894;15.542;2022-08-05T01:26:38;21.00;99.90
11569;DHT22;5840;46.894;15.542;2022-08-05T01:29:15;21.00;99.90
11569;DHT22;5840;46.894;15.542;2022-08-05T01:31:45;20.90;99.90
11569;DHT22;5840;46.894;15.542;2022-08-05T01:34:15;20.80;99.90
11569;DHT22;5840;46.894;15.542;2022-08-05T01:36:46;20.80;99.90
11569;DHT22;5840;46.894;15.542;2022-08-05T01:39:15;20.70;99.90
11569;DHT22;5840;46.894;15.542;2022-08-05T01:41:43;20.70;99.90
11569;DHT22;5840;46.894;15.542;2022-08-05T01:44:13;20.70;99.90
11569;DHT22;5840;46.894;15.542;2022-08-05T01:46:41;20.70;99.90
11569;DHT22;5840;46.894;15.542;2022-08-05T01:49:11;20.70;99.90
11569;DHT22;5840;46.894;15.542;2022-08-05T01:51:40;20.60;99.90
11569;DHT22;5840;46.894;15.542;2022-08-05T01:54:09;20.60;99.90
11569;DHT22;5840;46.894;15.542;2022-08-05T01:56:38;20.60;99.90
11569;DHT22;5840;46.894;15.542;2022-08-05T01:59:10;20.60;99.90
11569;DHT22;5840;46.894;15.542;2022-08-05T02:01:39;20.60;99.90
11569;DHT22;5840;46.894;15.542;2022-08-05T02:04:08;20.50;99.90
11569;DHT22;5840;46.894;15.542;2022-08-05T02:06:36;20.60;99.90
11569;DHT22;5840;46.894;15.542;2022-08-05T02:09:04;20.50;99.90
11569;DHT22;5840;46.894;15.542;2022-08-05T02:11:36;20.50;99.90
11569;DHT22;5840;46.894;15.542;2022-08-05T02:14:10;20.50;99.90
11569;DHT22;5840;46.894;15.542;2022-08-05T02:16:44;20.50;99.90
11569;DHT22;5840;46.894;15.542;2022-08-05T02:19:16;20.50;99.90
11569;DHT22;5840;46.894;15.542;2022-08-05T02:21:50;20.40;99.90
11569;DHT22;5840;46.894;15.542;2022-08-05T02:24:21;20.40;99.90
11569;DHT22;5840;46.894;15.542;2022-08-05T02:26:51;20.40;99.90
11569;DHT22;5840;46.894;15.542;2022-08-05T02:29:22;20.40;99.90
11569;DHT22;5840;46.894;15.542;2022-08-05T02:31:53;20.30;99.90
11569;DHT22;5840;46.894;15.542;2022-08-05T02:34:23;20.40;99.90
11569;DHT22;5840;46.894;15.542;2022-08-05T02:36:53;20.40;99.90
11569;DHT22;5840;46.894;15.542;2022-08-05T02:39:22;20.40;99.90
11569;DHT22;5840;46.894;15.542;2022-08-05T02:41:51;20.30;99.90
11569;DHT22;5840;46.894;15.542;2022-08-05T02:44:19;20.30;99.90
11569;DHT22;5840;46.894;15.542;2022-08-05T02:46:51;20.30;99.90
11569;DHT22;5840;46.894;15.542;2022-08-05T02:49:20;20.30;99.90
11569;DHT22;5840;46.894;15.542;2022-08-05T02:51:49;20.20;99.90
11569;DHT22;5840;46.894;15.542;2022-08-05T02:54:17;20.20;99.90
11569;DHT22;5840;46.894;15.542;2022-08-05T02:56:46;20.10;99.90
11569;DHT22;5840;46.894;15.542;2022-08-05T02:59:14;20.10;99.90
11569;DHT22;5840;46.894;15.542;2022-08-05T03:01:43;20.10;99.90
11569;DHT22;5840;46.894;15.542;2022-08-05T03:04:13;20.10;99.90
11569;DHT22;5840;46.894;15.542;2022-08-05T03:06:41;20.10;99.90
11569;DHT22;5840;46.894;15.542;2022-08-05T03:09:11;20.10;99.90
11569;DHT22;5840;46.894;15.542;2022-08-05T03:11:40;20.10;99.90
11569;DHT22;5840;46.894;15.542;2022-08-05T03:14:08;20.00;99.90
11569;DHT22;5840;46.894;15.542;2022-08-05T03:16:35;20.00;99.90
11569;DHT22;5840;46.894;15.542;2022-08-05T03:19:02;20.00;99.90
11569;DHT22;5840;46.894;15.542;2022-08-05T03:21:30;19.90;99.90
11569;DHT22;5840;46.894;15.542;2022-08-05T03:23:58;19.90;99.90
11569;DHT22;5840;46.894;15.542;2022-08-05T03:26:26;19.90;99.90
11569;DHT22;5840;46.894;15.542;2022-08-05T03:28:53;19.90;99.90
11569;DHT22;5840;46.894;15.542;2022-08-05T03:31:20;19.80;99.90
11569;DHT22;5840;46.894;15.542;2022-08-05T03:33:48;19.80;99.90
11569;DHT22;5840;46.894;15.542;2022-08-05T03:36:15;19.80;99.90
11569;DHT22;5840;46.894;15.542;2022-08-05T03:38:43;19.80;99.90
11569;DHT22;5840;46.894;15.542;2022-08-05T03:41:10;19.80;99.90
11569;DHT22;5840;46.894;15.542;2022-08-05T03:43:37;19.70;99.90
11569;DHT22;5840;46.894;15.542;2022-08-05T03:46:04;19.70;99.90
11569;DHT22;5840;46.894;15.542;2022-08-05T03:48:31;19.70;99.90
11569;DHT22;5840;46.894;15.542;2022-08-05T03:51:03;19.80;99.90
11569;DHT22;5840;46.894;15.542;2022-08-05T03:53:36;19.70;99.90
11569;DHT22;5840;46.894;15.542;2022-08-05T03:56:10;19.70;99.90
11569;DHT22;5840;46.894;15.542;2022-08-05T03:58:40;19.70;99.90
11569;DHT22;5840;46.894;15.542;2022-08-05T04:01:09;19.60;99.90
11569;DHT22;5840;46.894;15.542;2022-08-05T04:03:38;19.60;99.90
11569;DHT22;5840;46.894;15.542;2022-08-05T04:06:06;19.60;99.90
11569;DHT22;5840;46.894;15.542;2022-08-05T04:08:34;19.60;99.90
11569;DHT22;5840;46.894;15.542;2022-08-05T04:11:02;19.60;99.90
11569;DHT22;5840;46.894;15.542;2022-08-05T04:13:31;19.60;99.90
11569;DHT22;5840;46.894;15.542;2022-08-05T04:15:58;19.50;99.90
11569;DHT22;5840;46.894;15.542;2022-08-05T04:18:26;19.50;99.90
11569;DHT22;5840;46.894;15.542;2022-08-05T04:20:53;19.50;99.90
11569;DHT22;5840;46.894;15.542;2022-08-05T04:23:22;19.50;99.90
11569;DHT22;5840;46.894;15.542;2022-08-05T04:25:49;19.50;99.90
11569;DHT22;5840;46.894;15.542;2022-08-05T04:28:16;19.40;99.90
11569;DHT22;5840;46.894;15.542;2022-08-05T04:30:45;19.40;99.90
11569;DHT22;5840;46.894;15.542;2022-08-05T04:33:12;19.40;99.90
11569;DHT22;5840;46.894;15.542;2022-08-05T04:35:39;19.40;99.90
11569;DHT22;5840;46.894;15.542;2022-08-05T04:38:06;19.40;99.90
11569;DHT22;5840;46.894;15.542;2022-08-05T04:40:34;19.40;99.90
11569;DHT22;5840;46.894;15.542;2022-08-05T04:43:01;19.40;99.90
11569;DHT22;5840;46.894;15.542;2022-08-05T04:45:27;19.40;99.90
11569;DHT22;5840;46.894;15.542;2022-08-05T04:48:02;19.50;99.90
11569;DHT22;5840;46.894;15.542;2022-08-05T04:50:29;19.50;99.90
11569;DHT22;5840;46.894;15.542;2022-08-05T04:52:56;19.50;99.90
11569;DHT22;5840;46.894;15.542;2022-08-05T04:55:23;19.50;99.90
11569;DHT22;5840;46.894;15.542;2022-08-05T04:57:50;19.60;99.90
11569;DHT22;5840;46.894;15.542;2022-08-05T05:00:17;19.60;99.90
11569;DHT22;5840;46.894;15.542;2022-08-05T05:02:44;19.60;99.90
11569;DHT22;5840;46.894;15.542;2022-08-05T05:05:12;19.60;99.90
11569;DHT22;5840;46.894;15.542;2022-08-05T05:07:39;19.70;99.90
11569;DHT22;5840;46.894;15.542;2022-08-05T05:10:06;19.60;99.90
11569;DHT22;5840;46.894;15.542;2022-08-05T05:12:33;19.70;99.90
11569;DHT22;5840;46.894;15.542;2022-08-05T05:15:00;19.70;99.90
11569;DHT22;5840;46.894;15.542;2022-08-05T05:17:27;19.80;99.90
11569;DHT22;5840;46.894;15.542;2022-08-05T05:19:54;19.80;99.90
11569;DHT22;5840;46.894;15.542;2022-08-05T05:22:22;19.90;99.90
11569;DHT22;5840;46.894;15.542;2022-08-05T05:24:49;20.00;99.90
11569;DHT22;5840;46.894;15.542;2022-08-05T05:27:16;20.10;99.90
11569;DHT22;5840;46.894;15.542;2022-08-05T05:29:43;20.20;99.90
11569;DHT22;5840;46.894;15.542;2022-08-05T05:32:10;20.40;99.90
11569;DHT22;5840;46.894;15.542;2022-08-05T05:34:37;20.50;99.90
11569;DHT22;5840;46.894;15.542;2022-08-05T05:37:04;20.70;99.90
11569;DHT22;5840;46.894;15.542;2022-08-05T05:39:32;20.80;99.90
11569;DHT22;5840;46.894;15.542;2022-08-05T05:42:00;20.90;99.90
11569;DHT22;5840;46.894;15.542;2022-08-05T05:44:26;21.00;99.90
11569;DHT22;5840;46.894;15.542;2022-08-05T05:46:54;21.10;99.90
11569;DHT22;5840;46.894;15.542;2022-08-05T05:49:21;21.20;99.90
11569;DHT22;5840;46.894;15.542;2022-08-05T05:51:48;21.30;99.90
11569;DHT22;5840;46.894;15.542;2022-08-05T05:54:14;21.40;99.90
11569;DHT22;5840;46.894;15.542;2022-08-05T05:56:43;21.50;99.90
11569;DHT22;5840;46.894;15.542;2022-08-05T05:59:10;21.60;99.90
11569;DHT22;5840;46.894;15.542;2022-08-05T06:01:39;21.80;99.90
11569;DHT22;5840;46.894;15.542;2022-08-05T06:04:07;21.90;99.90
11569;DHT22;5840;46.894;15.542;2022-08-05T06:06:35;22.00;99.90
11569;DHT22;5840;46.894;15.542;2022-08-05T06:09:02;22.10;99.90
11569;DHT22;5840;46.894;15.542;2022-08-05T06:11:29;22.20;99.90
11569;DHT22;5840;46.894;15.542;2022-08-05T06:13:58;22.30;99.90
11569;DHT22;5840;46.894;15.542;2022-08-05T06:16:25;22.40;99.90
11569;DHT22;5840;46.894;15.542;2022-08-05T06:18:52;22.60;99.90
11569;DHT22;5840;46.894;15.542;2022-08-05T06:21:19;22.70;99.90
11569;DHT22;5840;46.894;15.542;2022-08-05T06:23:46;22.90;99.90
11569;DHT22;5840;46.894;15.542;2022-08-05T06:26:13;23.00;99.90
11569;DHT22;5840;46.894;15.542;2022-08-05T06:28:40;23.20;99.90
11569;DHT22;5840;46.894;15.542;2022-08-05T06:31:08;23.30;99.90
11569;DHT22;5840;46.894;15.542;2022-08-05T06:33:35;23.50;99.90
11569;DHT22;5840;46.894;15.542;2022-08-05T06:36:02;23.60;99.90
11569;DHT22;5840;46.894;15.542;2022-08-05T06:38:29;23.80;99.90
11569;DHT22;5840;46.894;15.542;2022-08-05T06:40:56;24.00;99.90
11569;DHT22;5840;46.894;15.542;2022-08-05T06:43:23;24.20;99.90
11569;DHT22;5840;46.894;15.542;2022-08-05T06:45:50;24.40;99.90
11569;DHT22;5840;46.894;15.542;2022-08-05T06:48:18;24.60;99.90
11569;DHT22;5840;46.894;15.542;2022-08-05T06:50:45;24.70;99.90
11569;DHT22;5840;46.894;15.542;2022-08-05T06:53:13;24.80;99.90
11569;DHT22;5840;46.894;15.542;2022-08-05T06:55:40;25.00;99.90
11569;DHT22;5840;46.894;15.542;2022-08-05T06:58:07;25.10;99.90
11569;DHT22;5840;46.894;15.542;2022-08-05T07:00:34;25.20;99.90
11569;DHT22;5840;46.894;15.542;2022-08-05T07:03:01;25.40;99.90
11569;DHT22;5840;46.894;15.542;2022-08-05T07:05:29;25.40;99.90
11569;DHT22;5840;46.894;15.542;2022-08-05T07:07:57;25.50;99.90
11569;DHT22;5840;46.894;15.542;2022-08-05T07:10:24;25.80;99.90
11569;DHT22;5840;46.894;15.542;2022-08-05T07:12:51;26.00;99.90
11569;DHT22;5840;46.894;15.542;2022-08-05T07:15:35;26.20;99.90
11569;DHT22;5840;46.894;15.542;2022-08-05T07:18:19;26.40;99.90
11569;DHT22;5840;46.894;15.542;2022-08-05T07:20:48;26.60;99.90
11569;DHT22;5840;46.894;15.542;2022-08-05T07:23:15;26.90;99.90
11569;DHT22;5840;46.894;15.542;2022-08-05T07:25:42;27.10;99.90
11569;DHT22;5840;46.894;15.542;2022-08-05T07:28:09;27.30;99.90
11569;DHT22;5840;46.894;15.542;2022-08-05T07:30:36;27.50;99.90
11569;DHT22;5840;46.894;15.542;2022-08-05T07:33:05;27.70;99.90
11569;DHT22;5840;46.894;15.542;2022-08-05T07:35:32;27.90;99.90
11569;DHT22;5840;46.894;15.542;2022-08-05T07:38:00;28.10;99.50
11569;DHT22;5840;46.894;15.542;2022-08-05T07:40:27;28.20;99.90
11569;DHT22;5840;46.894;15.542;2022-08-05T07:42:54;28.20;97.90
11569;DHT22;5840;46.894;15.542;2022-08-05T07:45:21;28.20;99.30
11569;DHT22;5840;46.894;15.542;2022-08-05T07:47:48;28.50;99.20
11569;DHT22;5840;46.894;15.542;2022-08-05T07:50:15;28.60;97.20
11569;DHT22;5840;46.894;15.542;2022-08-05T07:52:42;28.70;98.10
11569;DHT22;5840;46.894;15.542;2022-08-05T07:55:11;29.00;98.50
11569;DHT22;5840;46.894;15.542;2022-08-05T07:57:38;29.10;97.40
11569;DHT22;5840;46.894;15.542;2022-08-05T08:00:06;29.30;96.20
11569;DHT22;5840;46.894;15.542;2022-08-05T08:02:33;29.60;96.70
11569;DHT22;5840;46.894;15.542;2022-08-05T08:05:00;29.70;96.80
11569;DHT22;5840;46.894;15.542;2022-08-05T08:07:27;29.90;95.60
11569;DHT22;5840;46.894;15.542;2022-08-05T08:09:54;30.10;95.00
11569;DHT22;5840;46.894;15.542;2022-08-05T08:12:23;30.10;92.70
11569;DHT22;5840;46.894;15.542;2022-08-05T08:14:50;30.30;93.50
11569;DHT22;5840;46.894;15.542;2022-08-05T08:17:17;30.20;91.30
11569;DHT22;5840;46.894;15.542;2022-08-05T08:19:44;30.40;94.10
11569;DHT22;5840;46.894;15.542;2022-08-05T08:22:11;30.40;92.20
11569;DHT22;5840;46.894;15.542;2022-08-05T08:24:38;30.40;90.00
11569;DHT22;5840;46.894;15.542;2022-08-05T08:27:06;30.50;90.60
11569;DHT22;5840;46.894;15.542;2022-08-05T08:29:34;30.70;91.50
11569;DHT22;5840;46.894;15.542;2022-08-05T08:32:01;30.90;88.70
11569;DHT22;5840;46.894;15.542;2022-08-05T08:34:28;31.00;88.60
11569;DHT22;5840;46.894;15.542;2022-08-05T08:36:55;31.10;89.90
11569;DHT22;5840;46.894;15.542;2022-08-05T08:39:22;31.00;87.00
11569;DHT22;5840;46.894;15.542;2022-08-05T08:41:50;31.20;90.50
11569;DHT22;5840;46.894;15.542;2022-08-05T08:44:19;31.30;90.00
11569;DHT22;5840;46.894;15.542;2022-08-05T08:46:47;31.40;90.20
11569;DHT22;5840;46.894;15.542;2022-08-05T08:49:17;31.50;89.00
11569;DHT22;5840;46.894;15.542;2022-08-05T08:51:47;31.50;87.30
11569;DHT22;5840;46.894;15.542;2022-08-05T08:54:15;31.80;90.20
11569;DHT22;5840;46.894;15.542;2022-08-05T08:56:42;31.90;89.60
11569;DHT22;5840;46.894;15.542;2022-08-05T08:59:10;32.00;84.20
11569;DHT22;5840;46.894;15.542;2022-08-05T09:01:37;32.10;90.10
11569;DHT22;5840;46.894;15.542;2022-08-05T09:04:07;32.20;87.60
11569;DHT22;5840;46.894;15.542;2022-08-05T09:06:34;32.30;82.40
11569;DHT22;5840;46.894;15.542;2022-08-05T09:09:01;32.40;86.90
11569;DHT22;5840;46.894;15.542;2022-08-05T09:11:31;32.50;86.30
11569;DHT22;5840;46.894;15.542;2022-08-05T09:13:58;32.60;85.80
11569;DHT22;5840;46.894;15.542;2022-08-05T09:16:26;32.80;85.20
11569;DHT22;5840;46.894;15.542;2022-08-05T09:18:53;32.90;85.70
11569;DHT22;5840;46.894;15.542;2022-08-05T09:21:21;33.00;85.30
11569;DHT22;5840;46.894;15.542;2022-08-05T09:24:02;33.10;88.20
11569;DHT22;5840;46.894;15.542;2022-08-05T09:26:29;33.20;84.30
11569;DHT22;5840;46.894;15.542;2022-08-05T09:28:59;33.20;82.90
11569;DHT22;5840;46.894;15.542;2022-08-05T09:31:29;33.30;85.40
11569;DHT22;5840;46.894;15.542;2022-08-05T09:33:59;33.30;84.00
11569;DHT22;5840;46.894;15.542;2022-08-05T09:36:41;33.40;82.00
11569;DHT22;5840;46.894;15.542;2022-08-05T09:39:10;33.50;81.80
11569;DHT22;5840;46.894;15.542;2022-08-05T09:41:56;33.60;80.60
11569;DHT22;5840;46.894;15.542;2022-08-05T09:44:36;33.50;84.50
11569;DHT22;5840;46.894;15.542;2022-08-05T09:47:10;33.70;87.00
11569;DHT22;5840;46.894;15.542;2022-08-05T09:49:42;33.80;80.90
11569;DHT22;5840;46.894;15.542;2022-08-05T09:52:18;33.90;81.10
11569;DHT22;5840;46.894;15.542;2022-08-05T09:55:04;34.10;80.40
11569;DHT22;5840;46.894;15.542;2022-08-05T09:57:35;34.30;84.40
11569;DHT22;5840;46.894;15.542;2022-08-05T10:00:09;34.30;78.00
11569;DHT22;5840;46.894;15.542;2022-08-05T10:02:38;34.20;79.10
11569;DHT22;5840;46.894;15.542;2022-08-05T10:05:08;34.10;80.60
11569;DHT22;5840;46.894;15.542;2022-08-05T10:07:49;34.10;78.00
11569;DHT22;5840;46.894;15.542;2022-08-05T10:10:18;34.20;80.40
11569;DHT22;5840;46.894;15.542;2022-08-05T10:12:47;34.20;79.70
11569;DHT22;5840;46.894;15.542;2022-08-05T10:15:19;34.00;82.90
11569;DHT22;5840;46.894;15.542;2022-08-05T10:18:12;34.10;76.90
11569;DHT22;5840;46.894;15.542;2022-08-05T10:20:44;34.30;80.60
11569;DHT22;5840;46.894;15.542;2022-08-05T10:23:15;34.40;75.10
11569;DHT22;5840;46.894;15.542;2022-08-05T10:25:43;34.50;81.50
11569;DHT22;5840;46.894;15.542;2022-08-05T10:28:11;34.40;78.20
11569;DHT22;5840;46.894;15.542;2022-08-05T10:30:38;34.50;76.20
11569;DHT22;5840;46.894;15.542;2022-08-05T10:33:05;34.70;77.00
11569;DHT22;5840;46.894;15.542;2022-08-05T10:35:34;34.80;77.70
11569;DHT22;5840;46.894;15.542;2022-08-05T10:38:02;34.90;78.50
11569;DHT22;5840;46.894;15.542;2022-08-05T10:40:34;35.10;78.60
11569;DHT22;5840;46.894;15.542;2022-08-05T10:43:08;35.20;79.00
11569;DHT22;5840;46.894;15.542;2022-08-05T10:45:37;35.20;78.90
11569;DHT22;5840;46.894;15.542;2022-08-05T10:48:33;35.30;77.80
11569;DHT22;5840;46.894;15.542;2022-08-05T10:51:06;35.40;76.40
11569;DHT22;5840;46.894;15.542;2022-08-05T10:53:40;35.40;77.00
11569;DHT22;5840;46.894;15.542;2022-08-05T10:56:11;35.30;76.30
11569;DHT22;5840;46.894;15.542;2022-08-05T10:59:05;35.30;75.30
11569;DHT22;5840;46.894;15.542;2022-08-05T11:01:34;35.00;73.20
11569;DHT22;5840;46.894;15.542;2022-08-05T11:04:07;34.90;73.00
11569;DHT22;5840;46.894;15.542;2022-08-05T11:07:04;34.90;76.50
11569;DHT22;5840;46.894;15.542;2022-08-05T11:09:37;35.20;75.10
11569;DHT22;5840;46.894;15.542;2022-08-05T11:12:40;35.30;74.30
11569;DHT22;5840;46.894;15.542;2022-08-05T11:15:15;35.20;74.80
11569;DHT22;5840;46.894;15.542;2022-08-05T11:17:43;35.30;74.50
11569;DHT22;5840;46.894;15.542;2022-08-05T11:20:32;35.40;74.20
11569;DHT22;5840;46.894;15.542;2022-08-05T11:23:26;35.50;72.60
11569;DHT22;5840;46.894;15.542;2022-08-05T11:26:03;35.60;72.20
11569;DHT22;5840;46.894;15.542;2022-08-05T11:28:46;35.60;74.80
11569;DHT22;5840;46.894;15.542;2022-08-05T11:31:24;35.80;74.80
11569;DHT22;5840;46.894;15.542;2022-08-05T11:34:01;35.80;73.60
11569;DHT22;5840;46.894;15.542;2022-08-05T11:36:55;35.90;77.90
11569;DHT22;5840;46.894;15.542;2022-08-05T11:39:48;36.00;72.90
11569;DHT22;5840;46.894;15.542;2022-08-05T11:42:20;36.00;72.30
11569;DHT22;5840;46.894;15.542;2022-08-05T11:44:50;36.00;74.60
11569;DHT22;5840;46.894;15.542;2022-08-05T11:47:22;36.10;74.30
11569;DHT22;5840;46.894;15.542;2022-08-05T11:49:55;36.00;70.50
11569;DHT22;5840;46.894;15.542;2022-08-05T11:52:23;36.00;70.70
11569;DHT22;5840;46.894;15.542;2022-08-05T11:54:51;36.00;70.40
11569;DHT22;5840;46.894;15.542;2022-08-05T11:57:18;36.20;72.10
11569;DHT22;5840;46.894;15.542;2022-08-05T11:59:45;35.90;70.60
11569;DHT22;5840;46.894;15.542;2022-08-05T12:02:13;35.90;71.80
11569;DHT22;5840;46.894;15.542;2022-08-05T12:04:41;36.00;74.30
11569;DHT22;5840;46.894;15.542;2022-08-05T12:07:10;36.00;70.70
11569;DHT22;5840;46.894;15.542;2022-08-05T12:09:39;36.20;69.80
11569;DHT22;5840;46.894;15.542;2022-08-05T12:12:07;36.30;70.80
11569;DHT22;5840;46.894;15.542;2022-08-05T12:14:38;36.20;71.10
11569;DHT22;5840;46.894;15.542;2022-08-05T12:17:09;36.30;69.80
11569;DHT22;5840;46.894;15.542;2022-08-05T12:19:45;36.40;69.70
11569;DHT22;5840;46.894;15.542;2022-08-05T12:22:12;36.40;70.20
11569;DHT22;5840;46.894;15.542;2022-08-05T12:24:40;36.60;72.30
11569;DHT22;5840;46.894;15.542;2022-08-05T12:27:07;36.60;69.80
11569;DHT22;5840;46.894;15.542;2022-08-05T12:29:35;36.80;69.60
11569;DHT22;5840;46.894;15.542;2022-08-05T12:32:04;37.00;70.40
11569;DHT22;5840;46.894;15.542;2022-08-05T12:34:33;37.00;67.50
11569;DHT22;5840;46.894;15.542;2022-08-05T12:37:06;37.00;68.90
11569;DHT22;5840;46.894;15.542;2022-08-05T12:39:36;36.70;68.60
11569;DHT22;5840;46.894;15.542;2022-08-05T12:42:08;36.80;69.20
11569;DHT22;5840;46.894;15.542;2022-08-05T12:44:35;36.90;69.60
11569;DHT22;5840;46.894;15.542;2022-08-05T12:47:03;36.80;70.20
11569;DHT22;5840;46.894;15.542;2022-08-05T12:49:41;36.70;69.90
11569;DHT22;5840;46.894;15.542;2022-08-05T12:52:14;36.70;69.50
11569;DHT22;5840;46.894;15.542;2022-08-05T12:54:42;36.70;70.20
11569;DHT22;5840;46.894;15.542;2022-08-05T12:57:10;36.80;69.80
11569;DHT22;5840;46.894;15.542;2022-08-05T12:59:45;36.80;71.10
11569;DHT22;5840;46.894;15.542;2022-08-05T13:02:17;36.90;69.80
11569;DHT22;5840;46.894;15.542;2022-08-05T13:04:45;36.80;68.10
11569;DHT22;5840;46.894;15.542;2022-08-05T13:07:16;36.70;68.60
11569;DHT22;5840;46.894;15.542;2022-08-05T13:09:48;36.50;67.40
11569;DHT22;5840;46.894;15.542;2022-08-05T13:12:17;36.50;69.20
11569;DHT22;5840;46.894;15.542;2022-08-05T13:14:45;36.40;69.40
11569;DHT22;5840;46.894;15.542;2022-08-05T13:17:17;36.40;69.90
11569;DHT22;5840;46.894;15.542;2022-08-05T13:19:59;36.30;70.10
11569;DHT22;5840;46.894;15.542;2022-08-05T13:22:28;36.40;68.20
11569;DHT22;5840;46.894;15.542;2022-08-05T13:24:55;36.30;71.10
11569;DHT22;5840;46.894;15.542;2022-08-05T13:27:26;36.40;67.80
11569;DHT22;5840;46.894;15.542;2022-08-05T13:29:53;36.50;66.90
11569;DHT22;5840;46.894;15.542;2022-08-05T13:32:20;36.50;69.50
11569;DHT22;5840;46.894;15.542;2022-08-05T13:34:47;36.60;69.40
11569;DHT22;5840;46.894;15.542;2022-08-05T13:37:16;36.60;69.40
11569;DHT22;5840;46.894;15.542;2022-08-05T13:39:44;36.60;67.80
11569;DHT22;5840;46.894;15.542;2022-08-05T13:42:11;36.70;67.00
11569;DHT22;5840;46.894;15.542;2022-08-05T13:44:38;36.60;70.90
11569;DHT22;5840;46.894;15.542;2022-08-05T13:47:05;36.70;70.00
11569;DHT22;5840;46.894;15.542;2022-08-05T13:49:32;36.60;68.50
11569;DHT22;5840;46.894;15.542;2022-08-05T13:52:09;36.50;66.60
11569;DHT22;5840;46.894;15.542;2022-08-05T13:54:37;36.50;68.20
11569;DHT22;5840;46.894;15.542;2022-08-05T13:57:06;36.30;67.70
11569;DHT22;5840;46.894;15.542;2022-08-05T13:59:33;36.20;70.10
11569;DHT22;5840;46.894;15.542;2022-08-05T14:02:01;36.20;70.30
11569;DHT22;5840;46.894;15.542;2022-08-05T14:04:30;36.10;70.30
11569;DHT22;5840;46.894;15.542;2022-08-05T14:07:14;36.10;70.80
11569;DHT22;5840;46.894;15.542;2022-08-05T14:09:41;36.00;68.10
11569;DHT22;5840;46.894;15.542;2022-08-05T14:12:09;36.00;69.80
11569;DHT22;5840;46.894;15.542;2022-08-05T14:14:36;36.00;68.50
11569;DHT22;5840;46.894;15.542;2022-08-05T14:17:03;36.00;71.20
11569;DHT22;5840;46.894;15.542;2022-08-05T14:19:30;36.00;68.80
11569;DHT22;5840;46.894;15.542;2022-08-05T14:21:58;35.90;69.50
11569;DHT22;5840;46.894;15.542;2022-08-05T14:24:24;35.80;68.70
11569;DHT22;5840;46.894;15.542;2022-08-05T14:26:52;35.80;71.20
11569;DHT22;5840;46.894;15.542;2022-08-05T14:29:20;35.70;70.80
11569;DHT22;5840;46.894;15.542;2022-08-05T14:31:47;35.70;67.70
11569;DHT22;5840;46.894;15.542;2022-08-05T14:34:14;35.60;69.20
11569;DHT22;5840;46.894;15.542;2022-08-05T14:36:41;35.50;68.50
11569;DHT22;5840;46.894;15.542;2022-08-05T14:39:08;35.50;69.20
11569;DHT22;5840;46.894;15.542;2022-08-05T14:41:35;35.50;69.40
11569;DHT22;5840;46.894;15.542;2022-08-05T14:44:02;35.50;70.60
11569;DHT22;5840;46.894;15.542;2022-08-05T14:46:31;35.50;70.60
11569;DHT22;5840;46.894;15.542;2022-08-05T14:48:59;35.50;71.40
11569;DHT22;5840;46.894;15.542;2022-08-05T14:51:27;35.40;69.80
11569;DHT22;5840;46.894;15.542;2022-08-05T14:53:54;35.40;67.20
11569;DHT22;5840;46.894;15.542;2022-08-05T14:56:21;35.40;68.40
11569;DHT22;5840;46.894;15.542;2022-08-05T14:58:48;35.40;67.50
11569;DHT22;5840;46.894;15.542;2022-08-05T15:01:16;35.30;67.60
11569;DHT22;5840;46.894;15.542;2022-08-05T15:03:44;35.20;67.80
11569;DHT22;5840;46.894;15.542;2022-08-05T15:06:11;35.00;68.70
11569;DHT22;5840;46.894;15.542;2022-08-05T15:08:38;34.80;68.20
11569;DHT22;5840;46.894;15.542;2022-08-05T15:11:05;34.60;70.20
11569;DHT22;5840;46.894;15.542;2022-08-05T15:13:33;34.50;70.90
11569;DHT22;5840;46.894;15.542;2022-08-05T15:16:00;34.40;69.70
11569;DHT22;5840;46.894;15.542;2022-08-05T15:18:27;34.30;70.10
11569;DHT22;5840;46.894;15.542;2022-08-05T15:20:55;34.20;70.90
11569;DHT22;5840;46.894;15.542;2022-08-05T15:23:22;34.20;71.10
11569;DHT22;5840;46.894;15.542;2022-08-05T15:25:49;34.10;70.60
11569;DHT22;5840;46.894;15.542;2022-08-05T15:28:16;34.10;70.20
11569;DHT22;5840;46.894;15.542;2022-08-05T15:30:43;34.10;70.80
11569;DHT22;5840;46.894;15.542;2022-08-05T15:33:11;34.10;70.00
11569;DHT22;5840;46.894;15.542;2022-08-05T15:35:38;34.10;70.90
11569;DHT22;5840;46.894;15.542;2022-08-05T15:38:06;34.20;73.50
11569;DHT22;5840;46.894;15.542;2022-08-05T15:40:34;34.20;73.40
11569;DHT22;5840;46.894;15.542;2022-08-05T15:43:01;34.10;70.90
11569;DHT22;5840;46.894;15.542;2022-08-05T15:45:28;34.10;72.00